sensor_id;sensor_type;location;lat;lon;timestamp;P1;durP1;ratioP1;P2;durP2;ratioP2
20443;SDS011;10381;53.730;10.010;2023-05-10T00:03:42;15.25;;;7.40;;
20443;SDS011;10381;53.730;10.010;2023-05-10T00:07:42;10.67;;;7.03;;
20443;SDS011;10381;53.730;10.010;2023-05-10T00:11:44;12.85;;;6.07;;
20443;SDS011;10381;53.730;10.010;2023-05-10T00:15:45;9.90;;;6.57;;
20443;SDS011;10381;53.730;10.010;2023-05-10T00:19:45;9.47;;;6.27;;
20443;SDS011;10381;53.730;10.010;2023-05-10T00:23:45;10.67;;;7.07;;
20443;SDS011;10381;53.730;10.010;2023-05-10T00:27:45;10.23;;;6.87;;
20443;SDS011;10381;53.730;10.010;2023-05-10T00:31:46;11.13;;;6.47;;
20443;SDS011;10381;53.730;10.010;2023-05-10T00:35:46;8.80;;;5.93;;
20443;SDS011;10381;53.730;10.010;2023-05-10T00:39:46;10.83;;;6.80;;
20443;SDS011;10381;53.730;10.010;2023-05-10T00:43:46;9.63;;;6.93;;
20443;SDS011;10381;53.730;10.010;2023-05-10T00:47:47;14.43;;;7.40;;
20443;SDS011;10381;53.730;10.010;2023-05-10T00:51:47;9.48;;;6.80;;
20443;SDS011;10381;53.730;10.010;2023-05-10T00:55:48;11.63;;;6.63;;
20443;SDS011;10381;53.730;10.010;2023-05-10T00:59:49;20.35;;;7.00;;
20443;SDS011;10381;53.730;10.010;2023-05-10T01:03:50;11.32;;;6.95;;
20443;SDS011;10381;53.730;10.010;2023-05-10T01:07:50;12.95;;;7.05;;
20443;SDS011;10381;53.730;10.010;2023-05-10T01:11:51;12.13;;;7.40;;
20443;SDS011;10381;53.730;10.010;2023-05-10T01:15:52;10.55;;;6.97;;
20443;SDS011;10381;53.730;10.010;2023-05-10T01:19:52;9.85;;;6.57;;
20443;SDS011;10381;53.730;10.010;2023-05-10T01:32:33;13.40;;;7.28;;
20443;SDS011;10381;53.730;10.010;2023-05-10T01:36:43;12.50;;;6.75;;
20443;SDS011;10381;53.730;10.010;2023-05-10T01:40:51;17.67;;;7.38;;
20443;SDS011;10381;53.730;10.010;2023-05-10T01:45:07;13.43;;;7.40;;
20443;SDS011;10381;53.730;10.010;2023-05-10T01:49:25;11.75;;;7.93;;
20443;SDS011;10381;53.730;10.010;2023-05-10T01:53:29;12.65;;;7.18;;
20443;SDS011;10381;53.730;10.010;2023-05-10T01:57:32;9.82;;;6.68;;
20443;SDS011;10381;53.730;10.010;2023-05-10T02:01:34;10.27;;;7.30;;
20443;SDS011;10381;53.730;10.010;2023-05-10T02:05:37;9.20;;;6.90;;
20443;SDS011;10381;53.730;10.010;2023-05-10T02:09:39;12.35;;;7.35;;
20443;SDS011;10381;53.730;10.010;2023-05-10T02:13:41;13.95;;;7.60;;
20443;SDS011;10381;53.730;10.010;2023-05-10T02:17:43;15.15;;;7.05;;
20443;SDS011;10381;53.730;10.010;2023-05-10T02:21:45;10.85;;;7.15;;
20443;SDS011;10381;53.730;10.010;2023-05-10T02:25:47;16.98;;;7.70;;
20443;SDS011;10381;53.730;10.010;2023-05-10T02:29:49;11.38;;;7.60;;
20443;SDS011;10381;53.730;10.010;2023-05-10T02:33:51;15.18;;;7.63;;
20443;SDS011;10381;53.730;10.010;2023-05-10T02:37:52;10.52;;;7.35;;
20443;SDS011;10381;53.730;10.010;2023-05-10T02:41:54;11.85;;;8.48;;
20443;SDS011;10381;53.730;10.010;2023-05-10T02:45:56;16.10;;;7.80;;
20443;SDS011;10381;53.730;10.010;2023-05-10T02:49:57;13.17;;;7.73;;
20443;SDS011;10381;53.730;10.010;2023-05-10T02:53:57;14.30;;;8.23;;
20443;SDS011;10381;53.730;10.010;2023-05-10T02:58:24;14.02;;;8.70;;
20443;SDS011;10381;53.730;10.010;2023-05-10T03:02:25;10.65;;;7.20;;
20443;SDS011;10381;53.730;10.010;2023-05-10T03:06:26;10.57;;;7.72;;
20443;SDS011;10381;53.730;10.010;2023-05-10T03:10:27;13.95;;;8.38;;
20443;SDS011;10381;53.730;10.010;2023-05-10T03:19:29;18.27;;;8.88;;
20443;SDS011;10381;53.730;10.010;2023-05-10T03:23:35;11.10;;;7.75;;
20443;SDS011;10381;53.730;10.010;2023-05-10T03:27:40;9.55;;;7.40;;
20443;SDS011;10381;53.730;10.010;2023-05-10T03:31:43;10.85;;;7.63;;
20443;SDS011;10381;53.730;10.010;2023-05-10T03:35:43;21.23;;;7.80;;
20443;SDS011;10381;53.730;10.010;2023-05-10T03:39:45;10.68;;;7.40;;
20443;SDS011;10381;53.730;10.010;2023-05-10T03:43:45;9.82;;;7.75;;
20443;SDS011;10381;53.730;10.010;2023-05-10T03:47:46;10.20;;;6.97;;
20443;SDS011;10381;53.730;10.010;2023-05-10T03:51:46;11.20;;;7.15;;
20443;SDS011;10381;53.730;10.010;2023-05-10T03:55:46;8.83;;;7.00;;
20443;SDS011;10381;53.730;10.010;2023-05-10T03:59:47;13.07;;;7.27;;
20443;SDS011;10381;53.730;10.010;2023-05-10T04:03:47;11.23;;;7.73;;
20443;SDS011;10381;53.730;10.010;2023-05-10T04:07:47;11.33;;;6.70;;
20443;SDS011;10381;53.730;10.010;2023-05-10T04:11:49;12.45;;;7.43;;
20443;SDS011;10381;53.730;10.010;2023-05-10T04:15:49;14.02;;;8.07;;
20443;SDS011;10381;53.730;10.010;2023-05-10T04:19:50;11.07;;;7.00;;
20443;SDS011;10381;53.730;10.010;2023-05-10T04:23:52;13.25;;;6.93;;
20443;SDS011;10381;53.730;10.010;2023-05-10T04:27:53;11.43;;;7.40;;
20443;SDS011;10381;53.730;10.010;2023-05-10T04:31:53;13.80;;;7.30;;
20443;SDS011;10381;53.730;10.010;2023-05-10T04:35:55;12.40;;;7.47;;
20443;SDS011;10381;53.730;10.010;2023-05-10T04:39:55;8.07;;;6.30;;
20443;SDS011;10381;53.730;10.010;2023-05-10T04:43:57;8.45;;;6.50;;
20443;SDS011;10381;53.730;10.010;2023-05-10T04:47:59;15.68;;;7.35;;
20443;SDS011;10381;53.730;10.010;2023-05-10T04:52:00;10.50;;;6.97;;
20443;SDS011;10381;53.730;10.010;2023-05-10T04:56:00;11.07;;;7.10;;
20443;SDS011;10381;53.730;10.010;2023-05-10T05:00:00;12.38;;;6.97;;
20443;SDS011;10381;53.730;10.010;2023-05-10T05:04:01;10.35;;;7.45;;
20443;SDS011;10381;53.730;10.010;2023-05-10T05:08:02;17.90;;;7.72;;
20443;SDS011;10381;53.730;10.010;2023-05-10T05:12:02;10.05;;;7.18;;
20443;SDS011;10381;53.730;10.010;2023-05-10T05:16:03;11.93;;;7.07;;
20443;SDS011;10381;53.730;10.010;2023-05-10T05:20:03;9.20;;;7.03;;
20443;SDS011;10381;53.730;10.010;2023-05-10T05:24:04;10.95;;;7.05;;
20443;SDS011;10381;53.730;10.010;2023-05-10T05:28:05;13.32;;;6.75;;
20443;SDS011;10381;53.730;10.010;2023-05-10T05:32:05;10.13;;;6.60;;
20443;SDS011;10381;53.730;10.010;2023-05-10T05:36:05;10.60;;;7.80;;
20443;SDS011;10381;53.730;10.010;2023-05-10T05:40:06;8.57;;;6.60;;
20443;SDS011;10381;53.730;10.010;2023-05-10T05:44:07;10.20;;;7.45;;
20443;SDS011;10381;53.730;10.010;2023-05-10T05:48:07;14.37;;;7.80;;
20443;SDS011;10381;53.730;10.010;2023-05-10T05:52:08;11.07;;;6.70;;
20443;SDS011;10381;53.730;10.010;2023-05-10T05:56:08;13.37;;;6.93;;
20443;SDS011;10381;53.730;10.010;2023-05-10T06:00:09;7.93;;;6.68;;
20443;SDS011;10381;53.730;10.010;2023-05-10T06:04:10;9.15;;;7.40;;
20443;SDS011;10381;53.730;10.010;2023-05-10T06:08:10;9.73;;;7.50;;
20443;SDS011;10381;53.730;10.010;2023-05-10T06:12:10;11.23;;;7.10;;
20443;SDS011;10381;53.730;10.010;2023-05-10T06:16:11;10.68;;;7.85;;
20443;SDS011;10381;53.730;10.010;2023-05-10T06:20:12;8.45;;;7.05;;
20443;SDS011;10381;53.730;10.010;2023-05-10T06:24:13;11.65;;;7.30;;
20443;SDS011;10381;53.730;10.010;2023-05-10T06:28:13;9.23;;;7.23;;
20443;SDS011;10381;53.730;10.010;2023-05-10T06:32:14;7.80;;;6.72;;
20443;SDS011;10381;53.730;10.010;2023-05-10T06:36:15;14.37;;;8.17;;
20443;SDS011;10381;53.730;10.010;2023-05-10T06:40:15;9.10;;;7.40;;
20443;SDS011;10381;53.730;10.010;2023-05-10T06:44:16;9.10;;;7.22;;
20443;SDS011;10381;53.730;10.010;2023-05-10T06:48:16;10.10;;;6.77;;
20443;SDS011;10381;53.730;10.010;2023-05-10T06:52:16;9.38;;;7.47;;
20443;SDS011;10381;53.730;10.010;2023-05-10T06:56:16;9.07;;;7.13;;
20443;SDS011;10381;53.730;10.010;2023-05-10T07:00:17;12.13;;;7.90;;
20443;SDS011;10381;53.730;10.010;2023-05-10T07:04:18;10.07;;;6.72;;
20443;SDS011;10381;53.730;10.010;2023-05-10T07:08:18;8.57;;;7.00;;
20443;SDS011;10381;53.730;10.010;2023-05-10T07:12:18;12.17;;;8.00;;
20443;SDS011;10381;53.730;10.010;2023-05-10T07:16:19;10.40;;;7.68;;
20443;SDS011;10381;53.730;10.010;2023-05-10T07:20:19;11.37;;;7.17;;
20443;SDS011;10381;53.730;10.010;2023-05-10T07:24:19;10.53;;;7.50;;
20443;SDS011;10381;53.730;10.010;2023-05-10T07:28:20;11.70;;;7.40;;
20443;SDS011;10381;53.730;10.010;2023-05-10T07:32:20;10.43;;;7.47;;
20443;SDS011;10381;53.730;10.010;2023-05-10T07:36:21;17.40;;;8.10;;
20443;SDS011;10381;53.730;10.010;2023-05-10T07:40:21;13.93;;;7.57;;
20443;SDS011;10381;53.730;10.010;2023-05-10T07:44:22;16.70;;;6.67;;
20443;SDS011;10381;53.730;10.010;2023-05-10T07:48:22;10.68;;;7.88;;
20443;SDS011;10381;53.730;10.010;2023-05-10T07:52:22;9.98;;;6.95;;
20443;SDS011;10381;53.730;10.010;2023-05-10T08:00:26;16.60;;;7.85;;
20443;SDS011;10381;53.730;10.010;2023-05-10T08:04:26;9.50;;;7.63;;
20443;SDS011;10381;53.730;10.010;2023-05-10T08:08:27;9.77;;;6.90;;
20443;SDS011;10381;53.730;10.010;2023-05-10T08:12:27;10.17;;;7.63;;
20443;SDS011;10381;53.730;10.010;2023-05-10T08:16:27;14.57;;;7.30;;
20443;SDS011;10381;53.730;10.010;2023-05-10T08:20:28;10.23;;;7.45;;
20443;SDS011;10381;53.730;10.010;2023-05-10T08:24:28;8.50;;;7.27;;
20443;SDS011;10381;53.730;10.010;2023-05-10T08:28:29;13.45;;;7.00;;
20443;SDS011;10381;53.730;10.010;2023-05-10T08:32:29;11.27;;;7.93;;
20443;SDS011;10381;53.730;10.010;2023-05-10T08:36:29;12.13;;;7.80;;
20443;SDS011;10381;53.730;10.010;2023-05-10T08:40:30;12.03;;;7.23;;
20443;SDS011;10381;53.730;10.010;2023-05-10T08:44:31;13.48;;;7.43;;
20443;SDS011;10381;53.730;10.010;2023-05-10T08:48:34;11.43;;;7.35;;
20443;SDS011;10381;53.730;10.010;2023-05-10T08:52:36;10.55;;;7.40;;
20443;SDS011;10381;53.730;10.010;2023-05-10T08:56:39;8.73;;;6.93;;
20443;SDS011;10381;53.730;10.010;2023-05-10T09:00:39;11.40;;;7.57;;
20443;SDS011;10381;53.730;10.010;2023-05-10T09:04:39;9.07;;;7.28;;
20443;SDS011;10381;53.730;10.010;2023-05-10T09:08:41;8.40;;;6.87;;
20443;SDS011;10381;53.730;10.010;2023-05-10T09:12:42;10.95;;;7.30;;
20443;SDS011;10381;53.730;10.010;2023-05-10T09:16:44;15.98;;;7.55;;
20443;SDS011;10381;53.730;10.010;2023-05-10T09:20:44;10.52;;;7.95;;
20443;SDS011;10381;53.730;10.010;2023-05-10T09:24:44;9.57;;;7.13;;
20443;SDS011;10381;53.730;10.010;2023-05-10T09:28:54;13.20;;;8.20;;
20443;SDS011;10381;53.730;10.010;2023-05-10T09:32:57;19.67;;;7.97;;
20443;SDS011;10381;53.730;10.010;2023-05-10T09:36:59;14.30;;;7.50;;
20443;SDS011;10381;53.730;10.010;2023-05-10T09:41:01;14.88;;;8.95;;
20443;SDS011;10381;53.730;10.010;2023-05-10T09:45:03;12.85;;;8.32;;
20443;SDS011;10381;53.730;10.010;2023-05-10T09:49:04;10.95;;;8.35;;
20443;SDS011;10381;53.730;10.010;2023-05-10T09:53:05;14.00;;;8.90;;
20443;SDS011;10381;53.730;10.010;2023-05-10T09:57:06;14.20;;;7.90;;
20443;SDS011;10381;53.730;10.010;2023-05-10T10:01:18;12.57;;;8.02;;
20443;SDS011;10381;53.730;10.010;2023-05-10T10:05:19;11.70;;;8.15;;
20443;SDS011;10381;53.730;10.010;2023-05-10T10:09:19;13.52;;;7.43;;
20443;SDS011;10381;53.730;10.010;2023-05-10T10:13:20;12.07;;;7.88;;
20443;SDS011;10381;53.730;10.010;2023-05-10T10:17:20;11.90;;;8.05;;
20443;SDS011;10381;53.730;10.010;2023-05-10T10:21:22;18.42;;;7.60;;
20443;SDS011;10381;53.730;10.010;2023-05-10T10:25:22;10.50;;;7.60;;
20443;SDS011;10381;53.730;10.010;2023-05-10T10:29:24;13.25;;;7.50;;
20443;SDS011;10381;53.730;10.010;2023-05-10T10:37:59;17.63;;;13.45;;
20443;SDS011;10381;53.730;10.010;2023-05-10T10:42:00;19.98;;;14.95;;
20443;SDS011;10381;53.730;10.010;2023-05-10T10:46:15;25.73;;;18.85;;
20443;SDS011;10381;53.730;10.010;2023-05-10T10:50:17;35.08;;;23.00;;
20443;SDS011;10381;53.730;10.010;2023-05-10T10:54:18;26.85;;;20.42;;
20443;SDS011;10381;53.730;10.010;2023-05-10T10:58:29;26.50;;;19.08;;
20443;SDS011;10381;53.730;10.010;2023-05-10T11:06:41;28.58;;;20.10;;
20443;SDS011;10381;53.730;10.010;2023-05-10T11:10:49;26.33;;;19.77;;
20443;SDS011;10381;53.730;10.010;2023-05-10T11:14:52;26.15;;;19.95;;
20443;SDS011;10381;53.730;10.010;2023-05-10T11:19:03;29.85;;;20.63;;
20443;SDS011;10381;53.730;10.010;2023-05-10T11:23:13;31.33;;;21.90;;
20443;SDS011;10381;53.730;10.010;2023-05-10T11:27:15;26.15;;;19.73;;
20443;SDS011;10381;53.730;10.010;2023-05-10T11:31:16;33.45;;;20.35;;
20443;SDS011;10381;53.730;10.010;2023-05-10T11:35:17;28.98;;;20.40;;
20443;SDS011;10381;53.730;10.010;2023-05-10T11:39:18;26.67;;;19.07;;
20443;SDS011;10381;53.730;10.010;2023-05-10T11:43:18;31.00;;;20.83;;
20443;SDS011;10381;53.730;10.010;2023-05-10T11:47:18;33.63;;;22.53;;
20443;SDS011;10381;53.730;10.010;2023-05-10T11:51:22;25.73;;;21.47;;
20443;SDS011;10381;53.730;10.010;2023-05-10T11:55:23;25.80;;;21.73;;
20443;SDS011;10381;53.730;10.010;2023-05-10T11:59:24;32.58;;;21.65;;
20443;SDS011;10381;53.730;10.010;2023-05-10T12:03:25;33.97;;;20.85;;
20443;SDS011;10381;53.730;10.010;2023-05-10T12:07:26;25.40;;;20.15;;
20443;SDS011;10381;53.730;10.010;2023-05-10T12:11:27;27.07;;;21.30;;
20443;SDS011;10381;53.730;10.010;2023-05-10T12:15:28;26.42;;;20.65;;
20443;SDS011;10381;53.730;10.010;2023-05-10T12:19:29;27.60;;;20.70;;
20443;SDS011;10381;53.730;10.010;2023-05-10T12:23:37;24.20;;;20.20;;
20443;SDS011;10381;53.730;10.010;2023-05-10T12:27:39;31.40;;;22.65;;
20443;SDS011;10381;53.730;10.010;2023-05-10T12:31:52;31.80;;;23.23;;
20443;SDS011;10381;53.730;10.010;2023-05-10T12:35:58;39.58;;;23.35;;
20443;SDS011;10381;53.730;10.010;2023-05-10T12:39:59;29.48;;;24.10;;
20443;SDS011;10381;53.730;10.010;2023-05-10T12:43:59;30.63;;;19.83;;
20443;SDS011;10381;53.730;10.010;2023-05-10T12:47:59;29.50;;;21.10;;
20443;SDS011;10381;53.730;10.010;2023-05-10T12:52:00;29.07;;;22.20;;
20443;SDS011;10381;53.730;10.010;2023-05-10T12:56:00;24.87;;;19.40;;
20443;SDS011;10381;53.730;10.010;2023-05-10T13:00:00;33.00;;;20.13;;
20443;SDS011;10381;53.730;10.010;2023-05-10T13:04:02;30.58;;;19.15;;
20443;SDS011;10381;53.730;10.010;2023-05-10T13:08:03;26.97;;;18.53;;
20443;SDS011;10381;53.730;10.010;2023-05-10T13:12:03;20.80;;;17.27;;
20443;SDS011;10381;53.730;10.010;2023-05-10T13:16:03;24.88;;;17.70;;
20443;SDS011;10381;53.730;10.010;2023-05-10T13:20:04;20.80;;;16.50;;
20443;SDS011;10381;53.730;10.010;2023-05-10T13:24:05;22.20;;;15.57;;
20443;SDS011;10381;53.730;10.010;2023-05-10T13:28:06;24.40;;;16.92;;
20443;SDS011;10381;53.730;10.010;2023-05-10T13:32:06;20.87;;;15.90;;
20443;SDS011;10381;53.730;10.010;2023-05-10T13:36:06;21.40;;;17.20;;
20443;SDS011;10381;53.730;10.010;2023-05-10T13:40:07;21.08;;;16.48;;
20443;SDS011;10381;53.730;10.010;2023-05-10T13:44:08;19.42;;;17.23;;
20443;SDS011;10381;53.730;10.010;2023-05-10T13:48:08;19.75;;;17.75;;
20443;SDS011;10381;53.730;10.010;2023-05-10T13:52:10;19.47;;;17.37;;
20443;SDS011;10381;53.730;10.010;2023-05-10T13:56:10;22.60;;;18.30;;
20443;SDS011;10381;53.730;10.010;2023-05-10T14:00:10;17.97;;;16.07;;
20443;SDS011;10381;53.730;10.010;2023-05-10T14:04:11;18.58;;;16.67;;
20443;SDS011;10381;53.730;10.010;2023-05-10T14:08:11;19.67;;;17.60;;
20443;SDS011;10381;53.730;10.010;2023-05-10T14:12:13;19.67;;;17.63;;
20443;SDS011;10381;53.730;10.010;2023-05-10T14:16:14;26.25;;;16.83;;
20443;SDS011;10381;53.730;10.010;2023-05-10T14:20:14;18.75;;;15.88;;
20443;SDS011;10381;53.730;10.010;2023-05-10T14:24:15;20.90;;;15.45;;
20443;SDS011;10381;53.730;10.010;2023-05-10T14:28:15;18.13;;;16.23;;
20443;SDS011;10381;53.730;10.010;2023-05-10T14:32:15;18.30;;;16.33;;
20443;SDS011;10381;53.730;10.010;2023-05-10T14:36:16;21.70;;;16.05;;
20443;SDS011;10381;53.730;10.010;2023-05-10T14:40:17;19.15;;;17.08;;
20443;SDS011;10381;53.730;10.010;2023-05-10T14:44:18;19.85;;;15.55;;
20443;SDS011;10381;53.730;10.010;2023-05-10T14:48:18;18.93;;;16.50;;
20443;SDS011;10381;53.730;10.010;2023-05-10T14:52:19;19.85;;;17.40;;
20443;SDS011;10381;53.730;10.010;2023-05-10T14:56:19;19.30;;;16.73;;
20443;SDS011;10381;53.730;10.010;2023-05-10T15:00:21;22.23;;;17.75;;
20443;SDS011;10381;53.730;10.010;2023-05-10T15:04:22;22.20;;;17.33;;
20443;SDS011;10381;53.730;10.010;2023-05-10T15:08:22;21.38;;;17.92;;
20443;SDS011;10381;53.730;10.010;2023-05-10T15:12:24;19.75;;;16.05;;
20443;SDS011;10381;53.730;10.010;2023-05-10T15:16:24;22.70;;;16.90;;
20443;SDS011;10381;53.730;10.010;2023-05-10T15:20:25;20.83;;;18.50;;
20443;SDS011;10381;53.730;10.010;2023-05-10T15:24:25;20.27;;;17.30;;
20443;SDS011;10381;53.730;10.010;2023-05-10T15:28:25;20.80;;;18.67;;
20443;SDS011;10381;53.730;10.010;2023-05-10T15:32:25;20.57;;;17.80;;
20443;SDS011;10381;53.730;10.010;2023-05-10T15:36:26;20.53;;;18.33;;
20443;SDS011;10381;53.730;10.010;2023-05-10T15:40:26;22.47;;;18.40;;
20443;SDS011;10381;53.730;10.010;2023-05-10T15:44:26;22.90;;;17.97;;
20443;SDS011;10381;53.730;10.010;2023-05-10T15:48:26;21.50;;;17.33;;
20443;SDS011;10381;53.730;10.010;2023-05-10T15:52:27;19.83;;;17.77;;
20443;SDS011;10381;53.730;10.010;2023-05-10T15:56:27;20.05;;;17.70;;
20443;SDS011;10381;53.730;10.010;2023-05-10T16:00:28;22.75;;;17.75;;
20443;SDS011;10381;53.730;10.010;2023-05-10T16:04:29;18.60;;;16.67;;
20443;SDS011;10381;53.730;10.010;2023-05-10T16:08:29;18.43;;;16.43;;
20443;SDS011;10381;53.730;10.010;2023-05-10T16:12:29;20.13;;;16.43;;
20443;SDS011;10381;53.730;10.010;2023-05-10T16:16:30;18.50;;;16.50;;
20443;SDS011;10381;53.730;10.010;2023-05-10T16:20:31;18.27;;;16.17;;
20443;SDS011;10381;53.730;10.010;2023-05-10T16:24:31;18.08;;;16.10;;
20443;SDS011;10381;53.730;10.010;2023-05-10T16:28:32;15.63;;;14.00;;
20443;SDS011;10381;53.730;10.010;2023-05-10T16:32:32;15.87;;;12.60;;
20443;SDS011;10381;53.730;10.010;2023-05-10T16:36:33;14.27;;;12.80;;
20443;SDS011;10381;53.730;10.010;2023-05-10T16:40:34;17.85;;;15.02;;
20443;SDS011;10381;53.730;10.010;2023-05-10T16:44:34;19.30;;;15.38;;
20443;SDS011;10381;53.730;10.010;2023-05-10T16:48:35;23.95;;;20.13;;
20443;SDS011;10381;53.730;10.010;2023-05-10T16:52:35;50.83;;;46.03;;
20443;SDS011;10381;53.730;10.010;2023-05-10T16:56:36;50.80;;;45.85;;
20443;SDS011;10381;53.730;10.010;2023-05-10T17:00:36;46.58;;;42.22;;
20443;SDS011;10381;53.730;10.010;2023-05-10T17:04:37;49.95;;;44.80;;
20443;SDS011;10381;53.730;10.010;2023-05-10T17:08:37;46.63;;;42.08;;
20443;SDS011;10381;53.730;10.010;2023-05-10T17:12:37;44.60;;;40.23;;
20443;SDS011;10381;53.730;10.010;2023-05-10T17:16:38;51.10;;;46.27;;
20443;SDS011;10381;53.730;10.010;2023-05-10T17:20:38;51.53;;;46.50;;
20443;SDS011;10381;53.730;10.010;2023-05-10T17:24:38;52.60;;;47.30;;
20443;SDS011;10381;53.730;10.010;2023-05-10T17:28:38;47.53;;;43.10;;
20443;SDS011;10381;53.730;10.010;2023-05-10T17:32:39;46.77;;;42.07;;
20443;SDS011;10381;53.730;10.010;2023-05-10T17:36:39;46.15;;;41.47;;
20443;SDS011;10381;53.730;10.010;2023-05-10T17:40:39;51.03;;;45.83;;
20443;SDS011;10381;53.730;10.010;2023-05-10T17:44:40;51.97;;;46.70;;
20443;SDS011;10381;53.730;10.010;2023-05-10T17:48:41;55.75;;;49.80;;
20443;SDS011;10381;53.730;10.010;2023-05-10T17:52:41;51.88;;;46.67;;
20443;SDS011;10381;53.730;10.010;2023-05-10T17:56:41;51.20;;;45.83;;
20443;SDS011;10381;53.730;10.010;2023-05-10T18:00:42;50.28;;;45.67;;
20443;SDS011;10381;53.730;10.010;2023-05-10T18:04:42;56.43;;;50.93;;
20443;SDS011;10381;53.730;10.010;2023-05-10T18:08:43;63.30;;;56.77;;
20443;SDS011;10381;53.730;10.010;2023-05-10T18:12:44;62.55;;;56.00;;
20443;SDS011;10381;53.730;10.010;2023-05-10T18:16:44;71.75;;;64.75;;
20443;SDS011;10381;53.730;10.010;2023-05-10T18:20:44;67.73;;;60.67;;
20443;SDS011;10381;53.730;10.010;2023-05-10T18:24:45;63.03;;;56.88;;
20443;SDS011;10381;53.730;10.010;2023-05-10T18:28:46;62.53;;;56.03;;
20443;SDS011;10381;53.730;10.010;2023-05-10T18:32:46;62.53;;;56.37;;
20443;SDS011;10381;53.730;10.010;2023-05-10T18:36:46;59.53;;;53.33;;
20443;SDS011;10381;53.730;10.010;2023-05-10T18:40:47;58.87;;;53.37;;
20443;SDS011;10381;53.730;10.010;2023-05-10T18:44:47;61.03;;;54.50;;
20443;SDS011;10381;53.730;10.010;2023-05-10T18:48:47;58.60;;;52.28;;
20443;SDS011;10381;53.730;10.010;2023-05-10T18:52:48;57.33;;;51.73;;
20443;SDS011;10381;53.730;10.010;2023-05-10T18:56:49;59.53;;;53.30;;
20443;SDS011;10381;53.730;10.010;2023-05-10T19:00:50;56.93;;;50.30;;
20443;SDS011;10381;53.730;10.010;2023-05-10T19:04:51;57.05;;;51.38;;
20443;SDS011;10381;53.730;10.010;2023-05-10T19:08:51;50.67;;;45.97;;
20443;SDS011;10381;53.730;10.010;2023-05-10T19:12:52;51.93;;;46.83;;
20443;SDS011;10381;53.730;10.010;2023-05-10T19:16:52;50.93;;;45.60;;
20443;SDS011;10381;53.730;10.010;2023-05-10T19:20:53;48.45;;;43.75;;
20443;SDS011;10381;53.730;10.010;2023-05-10T19:24:55;49.13;;;44.40;;
20443;SDS011;10381;53.730;10.010;2023-05-10T19:28:55;51.25;;;45.75;;
20443;SDS011;10381;53.730;10.010;2023-05-10T19:32:56;53.30;;;47.72;;
20443;SDS011;10381;53.730;10.010;2023-05-10T19:36:56;51.53;;;46.20;;
20443;SDS011;10381;53.730;10.010;2023-05-10T19:40:57;59.67;;;47.60;;
20443;SDS011;10381;53.730;10.010;2023-05-10T19:44:58;53.10;;;47.00;;
20443;SDS011;10381;53.730;10.010;2023-05-10T19:48:58;56.75;;;46.60;;
20443;SDS011;10381;53.730;10.010;2023-05-10T19:52:58;55.03;;;47.90;;
20443;SDS011;10381;53.730;10.010;2023-05-10T19:56:59;60.70;;;48.15;;
20443;SDS011;10381;53.730;10.010;2023-05-10T20:01:00;62.38;;;48.13;;
20443;SDS011;10381;53.730;10.010;2023-05-10T20:05:00;53.80;;;47.95;;
20443;SDS011;10381;53.730;10.010;2023-05-10T20:09:00;65.47;;;48.03;;
20443;SDS011;10381;53.730;10.010;2023-05-10T20:13:01;61.73;;;48.63;;
20443;SDS011;10381;53.730;10.010;2023-05-10T20:17:01;59.77;;;48.07;;
20443;SDS011;10381;53.730;10.010;2023-05-10T20:21:01;64.63;;;48.00;;
20443;SDS011;10381;53.730;10.010;2023-05-10T20:25:01;59.20;;;47.80;;
20443;SDS011;10381;53.730;10.010;2023-05-10T20:29:02;69.60;;;49.35;;
20443;SDS011;10381;53.730;10.010;2023-05-10T20:33:02;65.85;;;49.25;;
20443;SDS011;10381;53.730;10.010;2023-05-10T20:37:03;57.95;;;50.50;;
20443;SDS011;10381;53.730;10.010;2023-05-10T20:41:03;70.15;;;50.50;;
20443;SDS011;10381;53.730;10.010;2023-05-10T20:45:04;66.57;;;51.90;;
20443;SDS011;10381;53.730;10.010;2023-05-10T20:49:06;63.20;;;50.25;;
20443;SDS011;10381;53.730;10.010;2023-05-10T20:53:07;69.15;;;50.40;;
20443;SDS011;10381;53.730;10.010;2023-05-10T20:57:08;62.03;;;50.45;;
20443;SDS011;10381;53.730;10.010;2023-05-10T21:01:11;64.60;;;47.88;;
20443;SDS011;10381;53.730;10.010;2023-05-10T21:05:11;65.93;;;49.33;;
20443;SDS011;10381;53.730;10.010;2023-05-10T21:09:12;67.47;;;49.42;;
20443;SDS011;10381;53.730;10.010;2023-05-10T21:13:12;63.03;;;51.10;;
20443;SDS011;10381;53.730;10.010;2023-05-10T21:17:12;72.13;;;50.43;;
20443;SDS011;10381;53.730;10.010;2023-05-10T21:21:13;68.28;;;49.53;;
20443;SDS011;10381;53.730;10.010;2023-05-10T21:25:13;74.77;;;52.03;;
20443;SDS011;10381;53.730;10.010;2023-05-10T21:29:14;73.10;;;50.63;;
20443;SDS011;10381;53.730;10.010;2023-05-10T21:33:14;64.90;;;48.83;;
20443;SDS011;10381;53.730;10.010;2023-05-10T21:37:14;63.93;;;49.07;;
20443;SDS011;10381;53.730;10.010;2023-05-10T21:41:16;71.15;;;51.80;;
20443;SDS011;10381;53.730;10.010;2023-05-10T21:45:17;70.53;;;48.47;;
20443;SDS011;10381;53.730;10.010;2023-05-10T21:49:18;65.00;;;50.47;;
20443;SDS011;10381;53.730;10.010;2023-05-10T21:53:20;75.60;;;52.25;;
20443;SDS011;10381;53.730;10.010;2023-05-10T21:57:21;74.70;;;51.10;;
20443;SDS011;10381;53.730;10.010;2023-05-10T22:01:22;66.80;;;51.38;;
20443;SDS011;10381;53.730;10.010;2023-05-10T22:05:23;65.30;;;52.20;;
20443;SDS011;10381;53.730;10.010;2023-05-10T22:09:23;83.57;;;59.60;;
20443;SDS011;10381;53.730;10.010;2023-05-10T22:13:24;78.38;;;53.80;;
20443;SDS011;10381;53.730;10.010;2023-05-10T22:17:24;78.03;;;55.70;;
20443;SDS011;10381;53.730;10.010;2023-05-10T22:21:24;75.90;;;53.57;;
20443;SDS011;10381;53.730;10.010;2023-05-10T22:25:25;72.57;;;53.43;;
20443;SDS011;10381;53.730;10.010;2023-05-10T22:29:25;79.55;;;57.05;;
20443;SDS011;10381;53.730;10.010;2023-05-10T22:33:26;77.07;;;56.13;;
20443;SDS011;10381;53.730;10.010;2023-05-10T22:37:26;90.07;;;56.97;;
20443;SDS011;10381;53.730;10.010;2023-05-10T22:41:26;70.90;;;55.35;;
20443;SDS011;10381;53.730;10.010;2023-05-10T22:45:27;73.80;;;55.20;;
20443;SDS011;10381;53.730;10.010;2023-05-10T22:49:27;79.47;;;56.23;;
20443;SDS011;10381;53.730;10.010;2023-05-10T22:53:27;73.33;;;54.63;;
20443;SDS011;10381;53.730;10.010;2023-05-10T22:57:27;73.00;;;55.23;;
20443;SDS011;10381;53.730;10.010;2023-05-10T23:01:28;65.67;;;55.03;;
20443;SDS011;10381;53.730;10.010;2023-05-10T23:05:28;62.22;;;55.47;;
20443;SDS011;10381;53.730;10.010;2023-05-10T23:09:28;62.37;;;55.63;;
20443;SDS011;10381;53.730;10.010;2023-05-10T23:13:29;67.43;;;59.27;;
20443;SDS011;10381;53.730;10.010;2023-05-10T23:17:29;64.15;;;56.65;;
20443;SDS011;10381;53.730;10.010;2023-05-10T23:21:29;67.63;;;57.83;;
20443;SDS011;10381;53.730;10.010;2023-05-10T23:25:29;62.43;;;55.60;;
20443;SDS011;10381;53.730;10.010;2023-05-10T23:29:30;64.23;;;57.53;;
20443;SDS011;10381;53.730;10.010;2023-05-10T23:33:31;63.60;;;56.13;;
20443;SDS011;10381;53.730;10.010;2023-05-10T23:37:31;65.33;;;57.17;;
20443;SDS011;10381;53.730;10.010;2023-05-10T23:41:32;63.22;;;54.45;;
20443;SDS011;10381;53.730;10.010;2023-05-10T23:45:32;61.90;;;54.05;;
20443;SDS011;10381;53.730;10.010;2023-05-10T23:49:32;59.92;;;51.15;;